Terminal Aerodrome Forecast
Issued by NWS

Home | Current Version | Previous Version | Text Only | Print | Product List | Glossary On
Versions: 1 2 3 4 5 6 7 8 9 10 11 12 13 14 15 16 17 18 19 20 21 22 23 24 25
000
FTUS45 KGJT 220159 AAB
TAFASE
TAF AMD
KASE 220159Z 2202/2224 35005KT P6SM -SN OVC022
      TEMPO 2202/2206 3SM -SN BR BKN010
     FM220600 35005KT P6SM VCSH SCT030 BKN040
     FM220900 29006KT P6SM FEW040 SCT060
     FM221500 VRB04KT P6SM FEW100 SCT200=

USA.gov is the U.S. government's official web portal to all federal, state and local government web resources and services.